sensor_id;sensor_type;location;lat;lon;timestamp;P1;durP1;ratioP1;P2;durP2;ratioP2
6842;SDS011;3460;52.028;8.916;2023-11-21T03:35:55;19.20;;;12.60;;
6842;SDS011;3460;52.028;8.916;2023-11-21T03:38:21;23.40;;;13.10;;
6842;SDS011;3460;52.028;8.916;2023-11-21T03:40:49;24.53;;;12.60;;
6842;SDS011;3460;52.028;8.916;2023-11-21T03:43:15;22.07;;;12.20;;
6842;SDS011;3460;52.028;8.916;2023-11-21T03:45:42;22.00;;;12.00;;
6842;SDS011;3460;52.028;8.916;2023-11-21T03:48:09;22.30;;;12.53;;
6842;SDS011;3460;52.028;8.916;2023-11-21T03:50:38;23.23;;;12.27;;
6842;SDS011;3460;52.028;8.916;2023-11-21T03:53:07;25.53;;;13.20;;
6842;SDS011;3460;52.028;8.916;2023-11-21T03:55:33;27.27;;;12.80;;
6842;SDS011;3460;52.028;8.916;2023-11-21T03:58:00;22.13;;;11.87;;
6842;SDS011;3460;52.028;8.916;2023-11-21T04:00:28;24.10;;;12.40;;
6842;SDS011;3460;52.028;8.916;2023-11-21T04:02:54;24.90;;;11.77;;
6842;SDS011;3460;52.028;8.916;2023-11-21T04:05:22;24.33;;;11.80;;
6842;SDS011;3460;52.028;8.916;2023-11-21T04:07:49;25.20;;;12.37;;
6842;SDS011;3460;52.028;8.916;2023-11-21T04:10:18;22.23;;;11.60;;
6842;SDS011;3460;52.028;8.916;2023-11-21T04:12:44;27.67;;;11.53;;
6842;SDS011;3460;52.028;8.916;2023-11-21T04:15:12;21.47;;;11.53;;
6842;SDS011;3460;52.028;8.916;2023-11-21T04:17:39;24.70;;;11.43;;
6842;SDS011;3460;52.028;8.916;2023-11-21T04:20:06;22.73;;;11.63;;
6842;SDS011;3460;52.028;8.916;2023-11-21T04:22:36;22.63;;;11.07;;
6842;SDS011;3460;52.028;8.916;2023-11-21T04:25:06;26.63;;;11.43;;
6842;SDS011;3460;52.028;8.916;2023-11-21T04:27:35;22.47;;;10.93;;
6842;SDS011;3460;52.028;8.916;2023-11-21T04:30:02;19.53;;;10.67;;
6842;SDS011;3460;52.028;8.916;2023-11-21T04:32:30;23.40;;;11.00;;
6842;SDS011;3460;52.028;8.916;2023-11-21T04:34:57;21.57;;;10.03;;
6842;SDS011;3460;52.028;8.916;2023-11-21T04:37:23;21.70;;;11.37;;
6842;SDS011;3460;52.028;8.916;2023-11-21T04:39:50;23.13;;;11.83;;
6842;SDS011;3460;52.028;8.916;2023-11-21T04:42:18;25.43;;;11.80;;
6842;SDS011;3460;52.028;8.916;2023-11-21T04:44:46;22.40;;;12.50;;
6842;SDS011;3460;52.028;8.916;2023-11-21T04:47:12;22.40;;;11.30;;
6842;SDS011;3460;52.028;8.916;2023-11-21T04:49:41;27.30;;;11.67;;
6842;SDS011;3460;52.028;8.916;2023-11-21T04:52:08;32.50;;;12.07;;
6842;SDS011;3460;52.028;8.916;2023-11-21T04:54:35;22.87;;;11.80;;
6842;SDS011;3460;52.028;8.916;2023-11-21T04:57:02;23.20;;;13.43;;
6842;SDS011;3460;52.028;8.916;2023-11-21T04:59:30;27.53;;;14.13;;
6842;SDS011;3460;52.028;8.916;2023-11-21T05:01:58;22.07;;;12.27;;
6842;SDS011;3460;52.028;8.916;2023-11-21T05:04:25;23.97;;;12.10;;
6842;SDS011;3460;52.028;8.916;2023-11-21T05:06:52;24.80;;;13.17;;
6842;SDS011;3460;52.028;8.916;2023-11-21T05:09:19;25.97;;;12.40;;
6842;SDS011;3460;52.028;8.916;2023-11-21T05:11:47;25.37;;;12.27;;
6842;SDS011;3460;52.028;8.916;2023-11-21T05:14:14;19.47;;;11.60;;
6842;SDS011;3460;52.028;8.916;2023-11-21T05:16:41;21.43;;;11.87;;
6842;SDS011;3460;52.028;8.916;2023-11-21T05:19:10;21.83;;;11.63;;
6842;SDS011;3460;52.028;8.916;2023-11-21T05:21:38;20.73;;;11.50;;
6842;SDS011;3460;52.028;8.916;2023-11-21T05:24:05;27.53;;;11.13;;
6842;SDS011;3460;52.028;8.916;2023-11-21T05:26:32;24.87;;;11.63;;
6842;SDS011;3460;52.028;8.916;2023-11-21T05:28:59;24.03;;;12.07;;
6842;SDS011;3460;52.028;8.916;2023-11-21T05:31:26;21.70;;;11.57;;
6842;SDS011;3460;52.028;8.916;2023-11-21T05:33:53;21.37;;;11.43;;
6842;SDS011;3460;52.028;8.916;2023-11-21T05:36:21;25.83;;;12.00;;
6842;SDS011;3460;52.028;8.916;2023-11-21T05:38:47;24.13;;;12.23;;
6842;SDS011;3460;52.028;8.916;2023-11-21T05:41:14;32.40;;;14.53;;
6842;SDS011;3460;52.028;8.916;2023-11-21T05:43:42;23.37;;;13.10;;
6842;SDS011;3460;52.028;8.916;2023-11-21T05:46:08;24.60;;;13.57;;
6842;SDS011;3460;52.028;8.916;2023-11-21T05:48:35;26.43;;;13.23;;
6842;SDS011;3460;52.028;8.916;2023-11-21T05:51:03;26.43;;;12.53;;
6842;SDS011;3460;52.028;8.916;2023-11-21T05:53:31;21.97;;;11.33;;
6842;SDS011;3460;52.028;8.916;2023-11-21T05:55:58;20.93;;;11.13;;
6842;SDS011;3460;52.028;8.916;2023-11-21T05:58:25;21.63;;;11.17;;
6842;SDS011;3460;52.028;8.916;2023-11-21T06:00:52;22.30;;;11.80;;
6842;SDS011;3460;52.028;8.916;2023-11-21T06:03:19;28.83;;;12.73;;
6842;SDS011;3460;52.028;8.916;2023-11-21T06:05:45;23.30;;;11.00;;
6842;SDS011;3460;52.028;8.916;2023-11-21T06:08:12;29.43;;;12.27;;
6842;SDS011;3460;52.028;8.916;2023-11-21T06:10:43;37.40;;;19.93;;
6842;SDS011;3460;52.028;8.916;2023-11-21T06:13:10;45.37;;;23.30;;
6842;SDS011;3460;52.028;8.916;2023-11-21T06:15:36;27.70;;;13.67;;
6842;SDS011;3460;52.028;8.916;2023-11-21T06:18:04;21.97;;;11.40;;
6842;SDS011;3460;52.028;8.916;2023-11-21T06:20:35;27.70;;;12.90;;
6842;SDS011;3460;52.028;8.916;2023-11-21T06:23:03;20.50;;;10.93;;
6842;SDS011;3460;52.028;8.916;2023-11-21T06:25:30;23.90;;;11.77;;
6842;SDS011;3460;52.028;8.916;2023-11-21T06:27:59;23.00;;;11.63;;
6842;SDS011;3460;52.028;8.916;2023-11-21T06:30:26;24.83;;;12.23;;
6842;SDS011;3460;52.028;8.916;2023-11-21T06:32:54;27.33;;;12.17;;
6842;SDS011;3460;52.028;8.916;2023-11-21T06:35:21;28.10;;;13.20;;
6842;SDS011;3460;52.028;8.916;2023-11-21T06:37:48;19.73;;;11.80;;
6842;SDS011;3460;52.028;8.916;2023-11-21T06:40:16;28.57;;;11.70;;
6842;SDS011;3460;52.028;8.916;2023-11-21T06:42:44;37.07;;;15.97;;
6842;SDS011;3460;52.028;8.916;2023-11-21T06:45:13;25.70;;;13.07;;
6842;SDS011;3460;52.028;8.916;2023-11-21T06:47:40;24.97;;;11.90;;
6842;SDS011;3460;52.028;8.916;2023-11-21T06:50:07;21.47;;;11.57;;
6842;SDS011;3460;52.028;8.916;2023-11-21T06:52:34;25.83;;;11.90;;
6842;SDS011;3460;52.028;8.916;2023-11-21T06:55:01;26.57;;;13.53;;
6842;SDS011;3460;52.028;8.916;2023-11-21T06:57:28;21.67;;;11.90;;
6842;SDS011;3460;52.028;8.916;2023-11-21T06:59:55;24.13;;;12.23;;
6842;SDS011;3460;52.028;8.916;2023-11-21T07:02:23;29.37;;;12.93;;
6842;SDS011;3460;52.028;8.916;2023-11-21T07:04:50;23.83;;;11.80;;
6842;SDS011;3460;52.028;8.916;2023-11-21T07:07:17;23.90;;;11.87;;
6842;SDS011;3460;52.028;8.916;2023-11-21T07:09:45;39.07;;;13.27;;
6842;SDS011;3460;52.028;8.916;2023-11-21T07:12:13;26.30;;;12.87;;
6842;SDS011;3460;52.028;8.916;2023-11-21T07:14:39;25.40;;;13.73;;
6842;SDS011;3460;52.028;8.916;2023-11-21T07:17:08;28.83;;;12.47;;
6842;SDS011;3460;52.028;8.916;2023-11-21T07:19:36;25.23;;;12.73;;
6842;SDS011;3460;52.028;8.916;2023-11-21T07:22:03;25.40;;;14.13;;
6842;SDS011;3460;52.028;8.916;2023-11-21T07:24:30;29.23;;;14.13;;
6842;SDS011;3460;52.028;8.916;2023-11-21T07:26:57;28.70;;;13.33;;
6842;SDS011;3460;52.028;8.916;2023-11-21T07:29:24;26.10;;;13.23;;
6842;SDS011;3460;52.028;8.916;2023-11-21T07:31:51;27.13;;;13.97;;
6842;SDS011;3460;52.028;8.916;2023-11-21T07:34:18;27.67;;;13.67;;
6842;SDS011;3460;52.028;8.916;2023-11-21T07:36:47;30.23;;;14.07;;
6842;SDS011;3460;52.028;8.916;2023-11-21T07:39:13;29.17;;;14.33;;
6842;SDS011;3460;52.028;8.916;2023-11-21T07:41:41;24.47;;;13.80;;
6842;SDS011;3460;52.028;8.916;2023-11-21T07:44:14;29.83;;;14.17;;
6842;SDS011;3460;52.028;8.916;2023-11-21T07:46:42;30.87;;;14.83;;
6842;SDS011;3460;52.028;8.916;2023-11-21T07:49:09;28.57;;;14.90;;
6842;SDS011;3460;52.028;8.916;2023-11-21T07:51:36;29.07;;;14.03;;
6842;SDS011;3460;52.028;8.916;2023-11-21T07:54:05;30.30;;;14.10;;
6842;SDS011;3460;52.028;8.916;2023-11-21T07:56:31;27.07;;;13.30;;
6842;SDS011;3460;52.028;8.916;2023-11-21T07:58:58;26.37;;;14.53;;
6842;SDS011;3460;52.028;8.916;2023-11-21T08:01:25;30.73;;;14.93;;
6842;SDS011;3460;52.028;8.916;2023-11-21T08:03:53;31.30;;;14.23;;
6842;SDS011;3460;52.028;8.916;2023-11-21T08:06:22;29.03;;;14.47;;
6842;SDS011;3460;52.028;8.916;2023-11-21T08:08:49;27.23;;;14.03;;
6842;SDS011;3460;52.028;8.916;2023-11-21T08:11:17;25.70;;;13.53;;
6842;SDS011;3460;52.028;8.916;2023-11-21T08:13:44;28.07;;;13.53;;
6842;SDS011;3460;52.028;8.916;2023-11-21T08:16:12;26.83;;;13.67;;
6842;SDS011;3460;52.028;8.916;2023-11-21T08:18:38;25.53;;;12.33;;
6842;SDS011;3460;52.028;8.916;2023-11-21T08:21:06;23.60;;;12.63;;
6842;SDS011;3460;52.028;8.916;2023-11-21T08:23:33;24.07;;;12.43;;
6842;SDS011;3460;52.028;8.916;2023-11-21T08:26:00;22.07;;;11.50;;
6842;SDS011;3460;52.028;8.916;2023-11-21T08:28:29;23.17;;;11.83;;
6842;SDS011;3460;52.028;8.916;2023-11-21T08:30:56;22.40;;;11.33;;
6842;SDS011;3460;52.028;8.916;2023-11-21T08:33:24;19.17;;;11.83;;
6842;SDS011;3460;52.028;8.916;2023-11-21T08:35:50;24.97;;;11.57;;
6842;SDS011;3460;52.028;8.916;2023-11-21T08:38:17;23.77;;;12.00;;
6842;SDS011;3460;52.028;8.916;2023-11-21T08:40:44;22.00;;;11.97;;
6842;SDS011;3460;52.028;8.916;2023-11-21T08:43:11;30.40;;;12.30;;
6842;SDS011;3460;52.028;8.916;2023-11-21T08:45:41;22.07;;;11.47;;
6842;SDS011;3460;52.028;8.916;2023-11-21T08:48:07;24.17;;;11.50;;
6842;SDS011;3460;52.028;8.916;2023-11-21T08:50:36;18.43;;;11.00;;
6842;SDS011;3460;52.028;8.916;2023-11-21T08:53:03;23.40;;;11.60;;
6842;SDS011;3460;52.028;8.916;2023-11-21T08:55:30;19.20;;;10.37;;
6842;SDS011;3460;52.028;8.916;2023-11-21T08:58:02;20.37;;;11.53;;
6842;SDS011;3460;52.028;8.916;2023-11-21T09:00:30;20.23;;;11.37;;
6842;SDS011;3460;52.028;8.916;2023-11-21T09:02:59;21.40;;;10.37;;
6842;SDS011;3460;52.028;8.916;2023-11-21T09:05:27;21.03;;;9.77;;
6842;SDS011;3460;52.028;8.916;2023-11-21T09:07:55;15.60;;;8.77;;
6842;SDS011;3460;52.028;8.916;2023-11-21T09:10:21;17.07;;;9.73;;
6842;SDS011;3460;52.028;8.916;2023-11-21T09:12:50;18.27;;;9.20;;
6842;SDS011;3460;52.028;8.916;2023-11-21T09:15:17;18.07;;;9.93;;
6842;SDS011;3460;52.028;8.916;2023-11-21T09:17:45;18.53;;;9.37;;
6842;SDS011;3460;52.028;8.916;2023-11-21T09:20:13;14.60;;;8.13;;
6842;SDS011;3460;52.028;8.916;2023-11-21T09:22:41;10.57;;;5.90;;
6842;SDS011;3460;52.028;8.916;2023-11-21T09:25:09;5.90;;;3.87;;
6842;SDS011;3460;52.028;8.916;2023-11-21T09:27:37;4.07;;;2.97;;
6842;SDS011;3460;52.028;8.916;2023-11-21T09:30:05;3.37;;;2.43;;
6842;SDS011;3460;52.028;8.916;2023-11-21T09:32:34;2.43;;;2.10;;
6842;SDS011;3460;52.028;8.916;2023-11-21T09:35:02;3.27;;;2.30;;
6842;SDS011;3460;52.028;8.916;2023-11-21T09:37:31;2.73;;;2.10;;
6842;SDS011;3460;52.028;8.916;2023-11-21T09:39:58;3.60;;;2.17;;
6842;SDS011;3460;52.028;8.916;2023-11-21T09:42:29;4.57;;;3.30;;
6842;SDS011;3460;52.028;8.916;2023-11-21T09:45:03;4.43;;;3.57;;
6842;SDS011;3460;52.028;8.916;2023-11-21T09:47:32;4.77;;;2.93;;
6842;SDS011;3460;52.028;8.916;2023-11-21T09:50:02;5.07;;;3.30;;
6842;SDS011;3460;52.028;8.916;2023-11-21T09:52:30;5.57;;;3.83;;
6842;SDS011;3460;52.028;8.916;2023-11-21T09:54:59;6.17;;;4.27;;
6842;SDS011;3460;52.028;8.916;2023-11-21T09:57:30;6.93;;;4.60;;
6842;SDS011;3460;52.028;8.916;2023-11-21T09:59:58;6.37;;;4.77;;
6842;SDS011;3460;52.028;8.916;2023-11-21T10:02:29;6.47;;;5.17;;
6842;SDS011;3460;52.028;8.916;2023-11-21T10:05:02;7.93;;;4.73;;
6842;SDS011;3460;52.028;8.916;2023-11-21T10:07:30;7.43;;;4.40;;
6842;SDS011;3460;52.028;8.916;2023-11-21T10:10:00;6.67;;;4.87;;
6842;SDS011;3460;52.028;8.916;2023-11-21T10:12:28;5.73;;;4.03;;
6842;SDS011;3460;52.028;8.916;2023-11-21T10:14:55;6.63;;;3.70;;
6842;SDS011;3460;52.028;8.916;2023-11-21T10:17:26;6.40;;;4.47;;
6842;SDS011;3460;52.028;8.916;2023-11-21T10:19:56;5.93;;;4.37;;
6842;SDS011;3460;52.028;8.916;2023-11-21T10:22:23;6.23;;;4.33;;
6842;SDS011;3460;52.028;8.916;2023-11-21T10:24:52;7.53;;;4.03;;
6842;SDS011;3460;52.028;8.916;2023-11-21T10:27:18;7.13;;;4.50;;
6842;SDS011;3460;52.028;8.916;2023-11-21T10:29:45;5.10;;;4.07;;
6842;SDS011;3460;52.028;8.916;2023-11-21T10:32:12;7.70;;;4.00;;
6842;SDS011;3460;52.028;8.916;2023-11-21T10:34:39;6.17;;;3.97;;
6842;SDS011;3460;52.028;8.916;2023-11-21T10:37:10;5.60;;;4.10;;
6842;SDS011;3460;52.028;8.916;2023-11-21T10:39:38;5.27;;;3.57;;
6842;SDS011;3460;52.028;8.916;2023-11-21T10:42:08;6.87;;;3.70;;
6842;SDS011;3460;52.028;8.916;2023-11-21T10:44:35;4.43;;;4.03;;
6842;SDS011;3460;52.028;8.916;2023-11-21T10:47:02;4.20;;;3.80;;
6842;SDS011;3460;52.028;8.916;2023-11-21T10:49:30;4.37;;;3.30;;
6842;SDS011;3460;52.028;8.916;2023-11-21T10:51:57;5.63;;;4.10;;
6842;SDS011;3460;52.028;8.916;2023-11-21T10:54:24;5.47;;;3.77;;
6842;SDS011;3460;52.028;8.916;2023-11-21T10:56:53;4.13;;;3.00;;
6842;SDS011;3460;52.028;8.916;2023-11-21T10:59:25;5.13;;;2.73;;
6842;SDS011;3460;52.028;8.916;2023-11-21T11:01:54;4.07;;;2.60;;
6842;SDS011;3460;52.028;8.916;2023-11-21T11:04:26;2.90;;;2.60;;
6842;SDS011;3460;52.028;8.916;2023-11-21T11:06:54;3.47;;;2.63;;
6842;SDS011;3460;52.028;8.916;2023-11-21T11:09:23;3.50;;;2.63;;
6842;SDS011;3460;52.028;8.916;2023-11-21T11:11:50;4.27;;;3.07;;
6842;SDS011;3460;52.028;8.916;2023-11-21T11:14:18;5.17;;;3.10;;
6842;SDS011;3460;52.028;8.916;2023-11-21T11:16:53;4.97;;;3.77;;
6842;SDS011;3460;52.028;8.916;2023-11-21T11:19:20;3.63;;;3.10;;
6842;SDS011;3460;52.028;8.916;2023-11-21T11:21:50;5.37;;;4.00;;
6842;SDS011;3460;52.028;8.916;2023-11-21T11:24:42;5.17;;;3.73;;
6842;SDS011;3460;52.028;8.916;2023-11-21T11:27:22;5.47;;;4.33;;
6842;SDS011;3460;52.028;8.916;2023-11-21T11:30:00;16.07;;;9.00;;
6842;SDS011;3460;52.028;8.916;2023-11-21T11:32:40;7.97;;;5.53;;
6842;SDS011;3460;52.028;8.916;2023-11-21T11:35:17;9.40;;;6.83;;
6842;SDS011;3460;52.028;8.916;2023-11-21T11:37:48;11.03;;;6.40;;
6842;SDS011;3460;52.028;8.916;2023-11-21T11:40:15;8.40;;;5.80;;
6842;SDS011;3460;52.028;8.916;2023-11-21T11:42:54;7.33;;;5.20;;
6842;SDS011;3460;52.028;8.916;2023-11-21T11:45:24;6.43;;;5.03;;
6842;SDS011;3460;52.028;8.916;2023-11-21T11:48:00;6.70;;;4.80;;
6842;SDS011;3460;52.028;8.916;2023-11-21T11:50:29;7.63;;;4.80;;
6842;SDS011;3460;52.028;8.916;2023-11-21T11:53:12;7.53;;;5.37;;
6842;SDS011;3460;52.028;8.916;2023-11-21T11:55:40;8.33;;;5.23;;
6842;SDS011;3460;52.028;8.916;2023-11-21T11:58:07;7.27;;;5.10;;
6842;SDS011;3460;52.028;8.916;2023-11-21T12:00:35;7.20;;;5.43;;
6842;SDS011;3460;52.028;8.916;2023-11-21T12:03:06;7.63;;;5.67;;
6842;SDS011;3460;52.028;8.916;2023-11-21T12:05:35;10.83;;;6.30;;
6842;SDS011;3460;52.028;8.916;2023-11-21T12:08:04;9.13;;;6.30;;
6842;SDS011;3460;52.028;8.916;2023-11-21T12:10:32;8.50;;;6.00;;
6842;SDS011;3460;52.028;8.916;2023-11-21T12:13:01;8.17;;;5.63;;
6842;SDS011;3460;52.028;8.916;2023-11-21T12:15:30;7.67;;;5.40;;
6842;SDS011;3460;52.028;8.916;2023-11-21T12:17:56;11.63;;;6.13;;
6842;SDS011;3460;52.028;8.916;2023-11-21T12:20:27;7.43;;;5.13;;
6842;SDS011;3460;52.028;8.916;2023-11-21T12:22:54;6.33;;;4.53;;
6842;SDS011;3460;52.028;8.916;2023-11-21T12:25:24;8.47;;;4.87;;
6842;SDS011;3460;52.028;8.916;2023-11-21T12:27:54;6.50;;;4.43;;
6842;SDS011;3460;52.028;8.916;2023-11-21T12:30:23;9.17;;;4.40;;
6842;SDS011;3460;52.028;8.916;2023-11-21T12:32:53;6.60;;;5.10;;
6842;SDS011;3460;52.028;8.916;2023-11-21T12:35:22;7.77;;;5.13;;
6842;SDS011;3460;52.028;8.916;2023-11-21T12:37:51;6.40;;;4.90;;
6842;SDS011;3460;52.028;8.916;2023-11-21T12:40:19;8.20;;;5.07;;
6842;SDS011;3460;52.028;8.916;2023-11-21T12:42:48;7.47;;;4.73;;
6842;SDS011;3460;52.028;8.916;2023-11-21T12:45:19;6.77;;;4.90;;
6842;SDS011;3460;52.028;8.916;2023-11-21T12:47:48;6.80;;;4.97;;
6842;SDS011;3460;52.028;8.916;2023-11-21T12:50:18;6.77;;;4.27;;
6842;SDS011;3460;52.028;8.916;2023-11-21T12:52:48;6.17;;;4.60;;
6842;SDS011;3460;52.028;8.916;2023-11-21T12:55:19;6.57;;;4.80;;
6842;SDS011;3460;52.028;8.916;2023-11-21T12:57:47;8.77;;;4.67;;
6842;SDS011;3460;52.028;8.916;2023-11-21T13:00:16;7.53;;;4.70;;
6842;SDS011;3460;52.028;8.916;2023-11-21T13:02:53;5.50;;;4.03;;
6842;SDS011;3460;52.028;8.916;2023-11-21T13:05:28;6.77;;;4.07;;
6842;SDS011;3460;52.028;8.916;2023-11-21T13:07:58;9.37;;;4.23;;
6842;SDS011;3460;52.028;8.916;2023-11-21T13:10:28;7.10;;;4.63;;
6842;SDS011;3460;52.028;8.916;2023-11-21T13:12:56;6.93;;;4.90;;
6842;SDS011;3460;52.028;8.916;2023-11-21T13:15:25;6.07;;;4.07;;
6842;SDS011;3460;52.028;8.916;2023-11-21T13:17:53;4.73;;;3.43;;
6842;SDS011;3460;52.028;8.916;2023-11-21T13:20:21;5.83;;;3.57;;
6842;SDS011;3460;52.028;8.916;2023-11-21T13:22:49;6.97;;;3.67;;
6842;SDS011;3460;52.028;8.916;2023-11-21T13:25:21;6.40;;;3.90;;
6842;SDS011;3460;52.028;8.916;2023-11-21T13:27:48;5.53;;;4.03;;
6842;SDS011;3460;52.028;8.916;2023-11-21T13:30:15;5.30;;;4.10;;
6842;SDS011;3460;52.028;8.916;2023-11-21T13:32:43;9.07;;;4.37;;
6842;SDS011;3460;52.028;8.916;2023-11-21T13:35:11;5.63;;;3.77;;
6842;SDS011;3460;52.028;8.916;2023-11-21T13:37:48;4.80;;;3.77;;
6842;SDS011;3460;52.028;8.916;2023-11-21T13:40:22;5.33;;;3.87;;
6842;SDS011;3460;52.028;8.916;2023-11-21T13:42:52;7.07;;;4.10;;
6842;SDS011;3460;52.028;8.916;2023-11-21T13:45:20;9.77;;;4.17;;
6842;SDS011;3460;52.028;8.916;2023-11-21T13:47:48;8.47;;;4.90;;
6842;SDS011;3460;52.028;8.916;2023-11-21T13:50:17;7.50;;;4.10;;
6842;SDS011;3460;52.028;8.916;2023-11-21T13:52:48;5.43;;;3.93;;
6842;SDS011;3460;52.028;8.916;2023-11-21T13:55:16;5.90;;;4.13;;
6842;SDS011;3460;52.028;8.916;2023-11-21T13:57:44;6.30;;;4.60;;
6842;SDS011;3460;52.028;8.916;2023-11-21T14:00:14;6.60;;;4.47;;
6842;SDS011;3460;52.028;8.916;2023-11-21T14:03:06;7.27;;;4.77;;
6842;SDS011;3460;52.028;8.916;2023-11-21T14:05:41;6.03;;;4.27;;
6842;SDS011;3460;52.028;8.916;2023-11-21T14:08:09;6.80;;;4.20;;
6842;SDS011;3460;52.028;8.916;2023-11-21T14:10:39;7.00;;;4.33;;
6842;SDS011;3460;52.028;8.916;2023-11-21T14:13:09;8.73;;;4.53;;
6842;SDS011;3460;52.028;8.916;2023-11-21T14:15:37;7.13;;;4.10;;
6842;SDS011;3460;52.028;8.916;2023-11-21T14:18:08;7.80;;;4.73;;
6842;SDS011;3460;52.028;8.916;2023-11-21T14:20:36;6.97;;;5.07;;
6842;SDS011;3460;52.028;8.916;2023-11-21T14:23:03;7.33;;;4.87;;
6842;SDS011;3460;52.028;8.916;2023-11-21T14:25:31;6.13;;;4.47;;
6842;SDS011;3460;52.028;8.916;2023-11-21T14:27:58;6.97;;;4.83;;
6842;SDS011;3460;52.028;8.916;2023-11-21T14:30:26;7.53;;;4.40;;
6842;SDS011;3460;52.028;8.916;2023-11-21T14:32:55;6.57;;;4.40;;
6842;SDS011;3460;52.028;8.916;2023-11-21T14:35:22;8.23;;;4.60;;
6842;SDS011;3460;52.028;8.916;2023-11-21T14:37:49;6.27;;;5.00;;
6842;SDS011;3460;52.028;8.916;2023-11-21T14:40:16;7.97;;;4.40;;
6842;SDS011;3460;52.028;8.916;2023-11-21T14:42:46;8.40;;;4.40;;
6842;SDS011;3460;52.028;8.916;2023-11-21T14:45:13;8.77;;;4.30;;
6842;SDS011;3460;52.028;8.916;2023-11-21T14:47:46;7.50;;;4.77;;
6842;SDS011;3460;52.028;8.916;2023-11-21T14:50:20;5.07;;;3.63;;
6842;SDS011;3460;52.028;8.916;2023-11-21T14:53:17;9.70;;;3.63;;
6842;SDS011;3460;52.028;8.916;2023-11-21T14:56:04;4.30;;;3.60;;
6842;SDS011;3460;52.028;8.916;2023-11-21T14:58:32;7.23;;;3.50;;
6842;SDS011;3460;52.028;8.916;2023-11-21T15:01:00;5.50;;;3.90;;
6842;SDS011;3460;52.028;8.916;2023-11-21T15:03:27;5.87;;;3.43;;
6842;SDS011;3460;52.028;8.916;2023-11-21T15:06:14;5.70;;;4.03;;
6842;SDS011;3460;52.028;8.916;2023-11-21T15:08:52;5.40;;;3.93;;
6842;SDS011;3460;52.028;8.916;2023-11-21T15:11:42;5.23;;;3.70;;
6842;SDS011;3460;52.028;8.916;2023-11-21T15:14:08;6.20;;;3.60;;
6842;SDS011;3460;52.028;8.916;2023-11-21T15:16:38;7.10;;;4.40;;
6842;SDS011;3460;52.028;8.916;2023-11-21T15:19:09;7.90;;;5.03;;
6842;SDS011;3460;52.028;8.916;2023-11-21T15:21:37;7.47;;;4.07;;
6842;SDS011;3460;52.028;8.916;2023-11-21T15:24:04;6.20;;;4.37;;
6842;SDS011;3460;52.028;8.916;2023-11-21T15:26:32;6.10;;;4.43;;
6842;SDS011;3460;52.028;8.916;2023-11-21T15:28:59;6.20;;;4.53;;
6842;SDS011;3460;52.028;8.916;2023-11-21T15:31:26;7.13;;;4.00;;
6842;SDS011;3460;52.028;8.916;2023-11-21T15:33:52;5.83;;;4.60;;
6842;SDS011;3460;52.028;8.916;2023-11-21T15:36:25;8.13;;;4.43;;
6842;SDS011;3460;52.028;8.916;2023-11-21T15:38:52;7.47;;;4.93;;
6842;SDS011;3460;52.028;8.916;2023-11-21T15:41:19;6.37;;;4.40;;
6842;SDS011;3460;52.028;8.916;2023-11-21T15:43:46;6.27;;;4.33;;
6842;SDS011;3460;52.028;8.916;2023-11-21T15:46:14;8.93;;;5.40;;
6842;SDS011;3460;52.028;8.916;2023-11-21T15:48:41;12.63;;;5.30;;
6842;SDS011;3460;52.028;8.916;2023-11-21T15:51:14;9.87;;;5.60;;
6842;SDS011;3460;52.028;8.916;2023-11-21T15:53:43;7.67;;;5.27;;
6842;SDS011;3460;52.028;8.916;2023-11-21T15:56:10;8.43;;;4.73;;
6842;SDS011;3460;52.028;8.916;2023-11-21T15:58:38;7.60;;;4.80;;
6842;SDS011;3460;52.028;8.916;2023-11-21T16:01:07;5.50;;;4.40;;
6842;SDS011;3460;52.028;8.916;2023-11-21T16:03:34;6.20;;;4.63;;
6842;SDS011;3460;52.028;8.916;2023-11-21T16:06:01;6.40;;;4.17;;
6842;SDS011;3460;52.028;8.916;2023-11-21T16:08:29;8.03;;;4.53;;
6842;SDS011;3460;52.028;8.916;2023-11-21T16:10:57;6.00;;;4.50;;
6842;SDS011;3460;52.028;8.916;2023-11-21T16:13:25;6.53;;;4.23;;
6842;SDS011;3460;52.028;8.916;2023-11-21T16:15:51;5.20;;;3.57;;
6842;SDS011;3460;52.028;8.916;2023-11-21T16:18:19;5.63;;;4.30;;
6842;SDS011;3460;52.028;8.916;2023-11-21T16:20:46;5.73;;;3.80;;
6842;SDS011;3460;52.028;8.916;2023-11-21T16:23:14;5.40;;;4.03;;
6842;SDS011;3460;52.028;8.916;2023-11-21T16:25:42;8.90;;;3.90;;
6842;SDS011;3460;52.028;8.916;2023-11-21T16:28:10;7.50;;;4.20;;
6842;SDS011;3460;52.028;8.916;2023-11-21T16:30:37;4.83;;;3.50;;
6842;SDS011;3460;52.028;8.916;2023-11-21T16:33:04;4.67;;;3.30;;
6842;SDS011;3460;52.028;8.916;2023-11-21T16:35:30;6.10;;;3.67;;
6842;SDS011;3460;52.028;8.916;2023-11-21T16:37:57;5.57;;;3.70;;
6842;SDS011;3460;52.028;8.916;2023-11-21T16:40:24;5.60;;;3.90;;
6842;SDS011;3460;52.028;8.916;2023-11-21T16:42:52;8.43;;;3.97;;
6842;SDS011;3460;52.028;8.916;2023-11-21T16:45:20;5.83;;;3.77;;
6842;SDS011;3460;52.028;8.916;2023-11-21T16:47:48;7.80;;;4.43;;
6842;SDS011;3460;52.028;8.916;2023-11-21T16:50:15;4.60;;;3.50;;
6842;SDS011;3460;52.028;8.916;2023-11-21T16:52:42;5.93;;;3.67;;
6842;SDS011;3460;52.028;8.916;2023-11-21T16:55:09;6.70;;;4.20;;
6842;SDS011;3460;52.028;8.916;2023-11-21T16:57:38;7.87;;;3.80;;
6842;SDS011;3460;52.028;8.916;2023-11-21T17:00:05;8.90;;;4.60;;
6842;SDS011;3460;52.028;8.916;2023-11-21T17:02:38;8.53;;;5.23;;
6842;SDS011;3460;52.028;8.916;2023-11-21T17:05:05;5.93;;;4.17;;
6842;SDS011;3460;52.028;8.916;2023-11-21T17:07:32;6.37;;;4.30;;
6842;SDS011;3460;52.028;8.916;2023-11-21T17:09:59;6.17;;;4.20;;
6842;SDS011;3460;52.028;8.916;2023-11-21T17:12:26;6.73;;;3.97;;
6842;SDS011;3460;52.028;8.916;2023-11-21T17:14:53;5.70;;;4.00;;
6842;SDS011;3460;52.028;8.916;2023-11-21T17:17:20;9.87;;;4.67;;
6842;SDS011;3460;52.028;8.916;2023-11-21T17:19:48;5.03;;;3.47;;
6842;SDS011;3460;52.028;8.916;2023-11-21T17:22:15;5.07;;;3.53;;
6842;SDS011;3460;52.028;8.916;2023-11-21T17:24:41;7.23;;;3.50;;
6842;SDS011;3460;52.028;8.916;2023-11-21T17:27:09;5.57;;;3.50;;
6842;SDS011;3460;52.028;8.916;2023-11-21T17:29:36;5.70;;;3.50;;
6842;SDS011;3460;52.028;8.916;2023-11-21T17:32:03;6.43;;;3.83;;
6842;SDS011;3460;52.028;8.916;2023-11-21T17:34:30;7.40;;;4.20;;
6842;SDS011;3460;52.028;8.916;2023-11-21T17:36:59;5.47;;;3.97;;
6842;SDS011;3460;52.028;8.916;2023-11-21T17:39:26;5.60;;;4.00;;
6842;SDS011;3460;52.028;8.916;2023-11-21T17:41:53;8.17;;;4.10;;
6842;SDS011;3460;52.028;8.916;2023-11-21T17:44:20;7.67;;;4.10;;
6842;SDS011;3460;52.028;8.916;2023-11-21T17:46:47;6.07;;;4.20;;
6842;SDS011;3460;52.028;8.916;2023-11-21T17:49:13;6.47;;;3.80;;
6842;SDS011;3460;52.028;8.916;2023-11-21T17:51:40;6.30;;;4.30;;
6842;SDS011;3460;52.028;8.916;2023-11-21T17:54:09;9.73;;;3.93;;
6842;SDS011;3460;52.028;8.916;2023-11-21T17:56:35;6.17;;;3.83;;
6842;SDS011;3460;52.028;8.916;2023-11-21T17:59:02;8.00;;;3.43;;
6842;SDS011;3460;52.028;8.916;2023-11-21T18:01:34;5.07;;;3.93;;
6842;SDS011;3460;52.028;8.916;2023-11-21T18:04:02;6.20;;;4.10;;
6842;SDS011;3460;52.028;8.916;2023-11-21T18:06:30;5.00;;;3.80;;
6842;SDS011;3460;52.028;8.916;2023-11-21T18:08:58;6.33;;;4.40;;
6842;SDS011;3460;52.028;8.916;2023-11-21T18:11:27;6.83;;;4.90;;
6842;SDS011;3460;52.028;8.916;2023-11-21T18:13:53;7.43;;;5.33;;
6842;SDS011;3460;52.028;8.916;2023-11-21T18:16:20;6.43;;;4.33;;
6842;SDS011;3460;52.028;8.916;2023-11-21T18:18:47;4.73;;;4.23;;
6842;SDS011;3460;52.028;8.916;2023-11-21T18:21:15;5.63;;;3.57;;
6842;SDS011;3460;52.028;8.916;2023-11-21T18:23:42;6.83;;;4.50;;
6842;SDS011;3460;52.028;8.916;2023-11-21T18:26:10;6.70;;;4.00;;
6842;SDS011;3460;52.028;8.916;2023-11-21T18:28:43;4.70;;;3.40;;
6842;SDS011;3460;52.028;8.916;2023-11-21T18:31:10;4.23;;;3.60;;
6842;SDS011;3460;52.028;8.916;2023-11-21T18:33:39;6.53;;;4.20;;
6842;SDS011;3460;52.028;8.916;2023-11-21T18:36:06;6.30;;;4.77;;
6842;SDS011;3460;52.028;8.916;2023-11-21T18:38:33;6.90;;;4.93;;
6842;SDS011;3460;52.028;8.916;2023-11-21T18:41:00;6.93;;;4.90;;
6842;SDS011;3460;52.028;8.916;2023-11-21T18:43:27;5.83;;;4.30;;
6842;SDS011;3460;52.028;8.916;2023-11-21T18:45:55;5.83;;;4.00;;
6842;SDS011;3460;52.028;8.916;2023-11-21T18:48:22;6.10;;;4.13;;